Udo Maru — JM6522 — position and weather

sailwx.info

Track history (hours):
 
Tides and Currents Weather Stations Pressure Air Temp Water Temp Dewpoint Dewpoint Depression Visibility Wind Speed Wind Dir Waves Ship Positions

Udo Maru

Last reported at 2014-Dec-21 23:31 UTC. Time now 2014-Dec-21 23:59 UTC.
Position N 35°22' E 139°51'.

Length 87 m; draft 4.9 m.

Type: Ship (hazmat cat A). MMSI: 431600499.

Date/timePositionNaut miles runAvg speedWind from/ knotsBaromVisibWave heightAir tempDewpointWater temp
2014-Dec-21 23:31N 35°22' E 139°51'0 0.0
2014-Dec-21 22:31N 35°22' E 139°51'0 0.0
2014-Dec-21 21:31N 35°22' E 139°51'0 0.0
2014-Dec-21 20:28N 35°22' E 139°51'0 0.0
2014-Dec-21 19:28N 35°22' E 139°51'0 0.0
2014-Dec-21 18:28N 35°22' E 139°51'0 0.0
2014-Dec-21 17:31N 35°22' E 139°51'0 0.0
2014-Dec-21 16:31N 35°22' E 139°51'0 0.0
2014-Dec-21 15:31N 35°22' E 139°51'0 0.1
2014-Dec-21 14:33N 35°21' E 139°51'1 1.1
2014-Dec-21 13:28N 35°22' E 139°49'0 0.0
2014-Dec-21 12:31N 35°22' E 139°49'0 0.0
2014-Dec-21 11:31N 35°22' E 139°49'0 0.0
2014-Dec-21 10:31N 35°22' E 139°49'0 0.0
2014-Dec-21 09:28N 35°22' E 139°49'0 0.1
2014-Dec-21 08:28N 35°22' E 139°49'0 0.1
2014-Dec-21 07:27N 35°22' E 139°49'1011.5
2014-Dec-21 06:34N 35°32' E 139°53'10 3.2
2014-Dec-21 03:27N 35°41' E 139°57'0 0.0
2014-Dec-20 22:29N 35°41' E 139°58'4 4.2
2014-Dec-20 21:33N 35°37' E 139°57'0 0.0
2014-Dec-20 20:22N 35°37' E 139°57'0 0.0
2014-Dec-20 19:27N 35°37' E 139°57'0 0.0
2014-Dec-20 18:32N 35°37' E 139°57'0 0.0
2014-Dec-20 17:11N 35°37' E 139°57'0 0.0
2014-Dec-20 16:17N 35°37' E 139°57'0 0.1
2014-Dec-20 15:30N 35°37' E 139°57'6 6.3
2014-Dec-20 14:33N 35°31' E 139°54'1111.1
2014-Dec-20 13:33N 35°23' E 139°46'10 9.7
2014-Dec-20 12:33N 35°13' E 139°47'1211.3
2014-Dec-20 11:32N 35°03' E 139°41'  
Track history (hours):
 
Tides and Currents Weather Stations Pressure Air Temp Water Temp Dewpoint Dewpoint Depression Visibility Wind Speed Wind Dir Waves Ship Positions

Udo Maru

Last reported at 2014-Dec-21 23:31 UTC. Time now 2014-Dec-21 23:59 UTC.
Position N 35°22' E 139°51'.

Length 87 m; draft 4.9 m.

Type: Ship (hazmat cat A). MMSI: 431600499.

Date/timePositionNaut miles runAvg speedWind from/ knotsBaromVisibWave heightAir tempDewpointWater temp
2014-Dec-21 23:31N 35°22' E 139°51'0 0.0
2014-Dec-21 22:31N 35°22' E 139°51'0 0.0
2014-Dec-21 21:31N 35°22' E 139°51'0 0.0
2014-Dec-21 20:28N 35°22' E 139°51'0 0.0
2014-Dec-21 19:28N 35°22' E 139°51'0 0.0
2014-Dec-21 18:28N 35°22' E 139°51'0 0.0
2014-Dec-21 17:31N 35°22' E 139°51'0 0.0
2014-Dec-21 16:31N 35°22' E 139°51'0 0.0
2014-Dec-21 15:31N 35°22' E 139°51'0 0.1
2014-Dec-21 14:33N 35°21' E 139°51'1 1.1
2014-Dec-21 13:28N 35°22' E 139°49'0 0.0
2014-Dec-21 12:31N 35°22' E 139°49'0 0.0
2014-Dec-21 11:31N 35°22' E 139°49'0 0.0
2014-Dec-21 10:31N 35°22' E 139°49'0 0.0
2014-Dec-21 09:28N 35°22' E 139°49'0 0.1
2014-Dec-21 08:28N 35°22' E 139°49'0 0.1
2014-Dec-21 07:27N 35°22' E 139°49'1011.5
2014-Dec-21 06:34N 35°32' E 139°53'10 3.2
2014-Dec-21 03:27N 35°41' E 139°57'0 0.0
2014-Dec-20 22:29N 35°41' E 139°58'4 4.2
2014-Dec-20 21:33N 35°37' E 139°57'0 0.0
2014-Dec-20 20:22N 35°37' E 139°57'0 0.0
2014-Dec-20 19:27N 35°37' E 139°57'0 0.0
2014-Dec-20 18:32N 35°37' E 139°57'0 0.0
2014-Dec-20 17:11N 35°37' E 139°57'0 0.0
2014-Dec-20 16:17N 35°37' E 139°57'0 0.1
2014-Dec-20 15:30N 35°37' E 139°57'6 6.3
2014-Dec-20 14:33N 35°31' E 139°54'1111.1
2014-Dec-20 13:33N 35°23' E 139°46'10 9.7
2014-Dec-20 12:33N 35°13' E 139°47'1211.3
2014-Dec-20 11:32N 35°03' E 139°41'  

Dump ship's entire track history